createdAt,value
2023-02-02T00:01:09.271Z,91.94
2023-02-02T00:05:06.903Z,92.18
2023-02-02T00:09:03.687Z,92.14
2023-02-02T00:13:23.972Z,92.12
2023-02-02T00:17:38.258Z,92.04
2023-02-02T00:20:57.039Z,91.95
2023-02-02T00:24:55.708Z,91.64
2023-02-02T00:28:50.977Z,91.59
2023-02-02T00:32:48.626Z,91.06
2023-02-02T00:36:48.529Z,91.05
2023-02-02T00:41:02.657Z,90.88
2023-02-02T00:44:41.916Z,90.77
2023-02-02T00:49:08.913Z,90.80
2023-02-02T00:53:23.157Z,90.75
2023-02-02T00:56:08.033Z,90.70
2023-02-02T00:59:12.128Z,90.61
2023-02-02T01:01:57.217Z,90.55
2023-02-02T01:04:42.354Z,90.48
2023-02-02T01:09:27.971Z,90.43
2023-02-02T01:12:58.528Z,90.64
2023-02-02T01:17:01.791Z,90.49
2023-02-02T01:20:36.705Z,90.90
2023-02-02T01:24:33.645Z,91.29
2023-02-02T01:34:06.044Z,91.63
2023-02-02T02:02:46.511Z,92.21
2023-02-02T02:11:36.786Z,92.65
2023-02-02T02:15:50.913Z,92.87
2023-02-02T02:19:08.846Z,93.11
2023-02-02T02:23:55.741Z,93.55
2023-02-02T02:28:42.842Z,93.98
2023-02-02T02:32:43.666Z,94.07
2023-02-02T02:37:02.760Z,94.50
2023-02-02T02:40:02.469Z,94.49
2023-02-02T02:42:57.372Z,94.41
2023-02-02T02:45:44.740Z,94.29
2023-02-02T02:48:31.443Z,94.34
2023-02-02T02:51:50.507Z,94.29
2023-02-02T02:54:45.745Z,94.16
2023-02-02T02:57:59.329Z,94.12
2023-02-02T03:01:48.295Z,93.95
2023-02-02T03:05:11.123Z,93.83
2023-02-02T03:08:04.959Z,93.74
2023-02-02T03:10:52.974Z,93.81
2023-02-02T03:13:42.065Z,93.82
2023-02-02T03:16:28.850Z,93.93
2023-02-02T03:19:15.297Z,93.98
2023-02-02T03:22:01.435Z,94.04
2023-02-02T03:24:47.701Z,94.00
2023-02-02T03:27:35.006Z,94.18
2023-02-02T03:40:58.211Z,93.47
2023-02-02T03:43:53.754Z,93.50
2023-02-02T03:47:49.228Z,93.53
2023-02-02T03:51:47.816Z,93.50
2023-02-02T03:55:43.051Z,93.46
2023-02-02T03:58:30.306Z,93.42
2023-02-02T04:01:17.406Z,93.37
2023-02-02T04:04:03.903Z,93.35
2023-02-02T04:06:50.577Z,93.29
2023-02-02T04:09:37.042Z,93.25
2023-02-02T04:12:23.746Z,93.13
2023-02-02T04:15:10.339Z,93.01
2023-02-02T04:17:56.818Z,92.93
2023-02-02T04:22:54.116Z,92.74
2023-02-02T04:25:59.787Z,92.61
2023-02-02T04:30:00.508Z,92.33
2023-02-02T04:33:59.485Z,92.18
2023-02-02T04:37:57.526Z,92.02
2023-02-02T04:41:53.162Z,91.98
2023-02-02T04:45:48.475Z,91.95
2023-02-02T04:50:12.797Z,91.31
2023-02-02T04:54:36.121Z,91.25
2023-02-02T04:58:30.951Z,90.95
2023-02-02T05:02:28.581Z,91.05
2023-02-02T05:06:26.755Z,90.80
2023-02-02T05:10:21.986Z,90.47
2023-02-02T05:14:20.433Z,90.24
2023-02-02T05:17:06.741Z,90.06
2023-02-02T05:19:53.431Z,90.08
2023-02-02T05:22:40.115Z,90.23
2023-02-02T05:25:26.866Z,90.44
2023-02-02T05:29:35.959Z,90.22
2023-02-02T05:32:22.663Z,90.29
2023-02-02T05:35:10.201Z,90.32
2023-02-02T05:37:59.019Z,90.18
2023-02-02T05:45:29.158Z,90.13
2023-02-02T05:48:15.617Z,90.21
2023-02-02T05:51:23.295Z,90.19
2023-02-02T05:54:09.591Z,89.90
2023-02-02T05:56:57.062Z,89.70
2023-02-02T05:59:43.497Z,89.78
2023-02-02T06:02:29.994Z,89.59
2023-02-02T06:05:16.815Z,89.61
2023-02-02T06:09:42.489Z,89.48
2023-02-02T06:12:28.855Z,89.50
2023-02-02T06:15:15.608Z,89.32
2023-02-02T06:18:02.468Z,89.23
2023-02-02T06:20:48.892Z,89.21
2023-02-02T06:23:35.666Z,89.13
2023-02-02T06:26:22.330Z,88.86
2023-02-02T06:29:12.701Z,88.72
2023-02-02T06:31:59.581Z,88.74
2023-02-02T06:34:45.972Z,88.56
2023-02-02T06:37:34.293Z,88.20
2023-02-02T06:40:21.038Z,87.88
2023-02-02T06:43:09.085Z,87.88
2023-02-02T06:45:58.039Z,87.82
2023-02-02T06:48:45.893Z,87.77
2023-02-02T06:51:32.138Z,87.86
2023-02-02T06:55:39.360Z,88.01
2023-02-02T06:58:26.702Z,87.60
2023-02-02T07:01:14.533Z,87.57
2023-02-02T07:04:01.211Z,87.26
2023-02-02T07:06:47.887Z,87.44
2023-02-02T07:09:34.588Z,87.55
2023-02-02T07:12:57.071Z,88.06
2023-02-02T07:16:54.578Z,88.78
2023-02-02T07:19:41.021Z,88.87
2023-02-02T07:22:27.445Z,89.07
2023-02-02T07:25:14.185Z,89.21
2023-02-02T07:28:02.453Z,89.33
2023-02-02T07:30:49.540Z,89.70
2023-02-02T07:33:41.264Z,89.83
2023-02-02T07:36:28.092Z,90.11
2023-02-02T07:39:14.614Z,90.24
2023-02-02T07:42:01.251Z,90.51
2023-02-02T07:44:47.579Z,90.58
2023-02-02T07:47:33.835Z,90.80
2023-02-02T07:50:31.248Z,90.97
2023-02-02T07:53:17.988Z,91.24
2023-02-02T07:56:11.509Z,91.40
2023-02-02T07:58:58.484Z,91.43
2023-02-02T08:01:45.286Z,91.49
2023-02-02T08:04:33.855Z,91.53
2023-02-02T08:07:32.351Z,91.51
2023-02-02T08:10:19.473Z,91.53
2023-02-02T08:13:06.338Z,91.54
2023-02-02T08:15:52.897Z,91.58
2023-02-02T08:18:39.993Z,91.81
2023-02-02T08:21:27.402Z,91.93
2023-02-02T08:24:13.983Z,91.92
2023-02-02T08:27:00.715Z,91.90
2023-02-02T08:29:47.999Z,91.82
2023-02-02T08:32:34.470Z,91.97
2023-02-02T08:35:21.940Z,91.93
2023-02-02T08:38:09.076Z,91.68
2023-02-02T08:40:56.167Z,91.86
2023-02-02T08:43:43.932Z,91.93
2023-02-02T08:46:31.170Z,91.83
2023-02-02T08:49:18.093Z,91.90
2023-02-02T08:52:05.253Z,91.86
2023-02-02T08:54:53.312Z,91.64
2023-02-02T08:57:40.143Z,91.69
2023-02-02T09:00:27.284Z,91.73
2023-02-02T09:03:17.129Z,91.76
2023-02-02T09:06:08.829Z,91.53
2023-02-02T09:08:55.520Z,91.57
2023-02-02T09:11:42.555Z,91.12
2023-02-02T09:14:29.397Z,90.77
2023-02-02T09:17:16.122Z,90.52
2023-02-02T09:20:02.858Z,90.56
2023-02-02T09:22:49.144Z,90.64
2023-02-02T09:25:35.627Z,90.28
2023-02-02T09:33:07.218Z,90.69
2023-02-02T09:35:54.259Z,90.65
2023-02-02T09:38:42.755Z,90.69
2023-02-02T09:46:11.961Z,90.68
2023-02-02T09:49:07.853Z,90.46
2023-02-02T09:52:02.248Z,90.41
2023-02-02T09:54:52.358Z,90.48
2023-02-02T09:57:45.123Z,90.25
2023-02-02T10:05:08.854Z,90.62
2023-02-02T10:08:02.677Z,90.35
2023-02-02T10:10:51.980Z,90.24
2023-02-02T10:13:44.017Z,90.24
2023-02-02T10:16:32.576Z,90.47
2023-02-02T10:19:20.787Z,90.53
2023-02-02T10:22:13.304Z,90.61
2023-02-02T10:25:00.167Z,90.43
2023-02-02T10:28:05.251Z,90.25
2023-02-02T10:31:01.374Z,90.37
2023-02-02T10:34:14.068Z,90.55
2023-02-02T10:37:17.549Z,90.75
2023-02-02T10:40:35.898Z,90.61
2023-02-02T10:44:06.269Z,90.38
2023-02-02T10:46:58.568Z,90.29
2023-02-02T10:49:46.013Z,90.08
2023-02-02T10:52:34.709Z,90.00
2023-02-02T10:55:28.539Z,89.92
2023-02-02T10:58:21.348Z,89.98
2023-02-02T11:01:12.026Z,90.09
2023-02-02T11:04:18.217Z,90.03
2023-02-02T11:07:05.527Z,90.07
2023-02-02T11:09:54.228Z,90.22
2023-02-02T11:12:47.112Z,90.39
2023-02-02T11:15:34.326Z,90.32
2023-02-02T11:18:30.125Z,90.13
2023-02-02T11:22:40.489Z,90.18
2023-02-02T11:27:05.009Z,90.03
2023-02-02T11:30:37.228Z,90.21
2023-02-02T11:35:04.374Z,90.55
2023-02-02T11:39:20.501Z,90.99
2023-02-02T11:43:19.696Z,91.05
2023-02-02T11:47:25.813Z,91.17
2023-02-02T11:51:28.640Z,91.53
2023-02-02T11:55:17.732Z,91.51
2023-02-02T11:59:04.335Z,91.37
2023-02-02T12:01:51.392Z,91.58
2023-02-02T12:04:41.029Z,91.34
2023-02-02T12:07:54.746Z,90.90
2023-02-02T12:10:51.643Z,90.71
2023-02-02T12:16:37.729Z,90.59
2023-02-02T12:19:57.590Z,90.72
2023-02-02T12:24:20.745Z,90.44
2023-02-02T12:27:22.395Z,90.31
2023-02-02T12:30:47.659Z,90.44
2023-02-02T12:33:44.154Z,90.64
2023-02-02T12:36:39.483Z,90.73
2023-02-02T12:40:00.375Z,90.78
2023-02-02T12:43:22.261Z,90.71
2023-02-02T12:55:17.670Z,91.23
2023-02-02T12:58:32.726Z,90.96
2023-02-02T13:01:54.504Z,90.68
2023-02-02T13:06:20.531Z,91.14
2023-02-02T13:20:02.246Z,90.77
2023-02-02T13:34:03.739Z,89.08
2023-02-02T13:37:57.270Z,88.88
2023-02-02T13:41:07.280Z,89.11
2023-02-02T13:44:43.393Z,89.43
2023-02-02T13:58:53.993Z,88.75
2023-02-02T14:02:31.089Z,87.93
2023-02-02T14:05:33.276Z,85.38
2023-02-02T14:08:34.114Z,82.97
2023-02-02T14:11:35.020Z,82.47
2023-02-02T14:14:32.562Z,82.92
2023-02-02T14:17:21.995Z,83.62
2023-02-02T14:22:44.689Z,84.73
2023-02-02T14:26:41.549Z,85.46
2023-02-02T14:30:40.368Z,85.58
2023-02-02T14:34:44.688Z,85.12
2023-02-02T14:38:47.757Z,85.06
2023-02-02T14:42:41.858Z,82.65
2023-02-02T14:46:41.371Z,82.26
2023-02-02T14:50:39.662Z,83.31
2023-02-02T14:54:39.924Z,84.39
2023-02-02T14:58:37.257Z,85.09
2023-02-02T15:02:37.348Z,85.58
2023-02-02T15:06:37.812Z,86.29
2023-02-02T15:21:06.838Z,86.49
2023-02-02T15:24:16.697Z,86.49
2023-02-02T15:28:39.272Z,86.17
2023-02-02T15:43:43.745Z,85.36
2023-02-02T15:46:40.219Z,85.56
2023-02-02T15:50:48.231Z,85.78
2023-02-02T15:54:52.016Z,85.65
2023-02-02T15:58:33.625Z,84.97
2023-02-02T16:17:35.605Z,84.80
2023-02-02T16:20:39.025Z,84.92
2023-02-02T16:25:43.345Z,85.19
2023-02-02T16:28:38.268Z,85.85
2023-02-02T16:31:25.717Z,86.31
2023-02-02T16:34:41.199Z,86.48
2023-02-02T16:37:33.168Z,86.62
2023-02-02T16:40:27.994Z,86.43
2023-02-02T16:43:21.120Z,86.45
2023-02-02T16:46:13.607Z,86.52
2023-02-02T16:49:00.921Z,86.44
2023-02-02T16:52:30.994Z,86.53
2023-02-02T16:55:19.488Z,86.56
2023-02-02T16:58:06.298Z,86.51
2023-02-02T17:01:15.652Z,86.45
2023-02-02T17:04:05.866Z,86.19
2023-02-02T17:06:53.609Z,86.08
2023-02-02T17:09:42.926Z,86.04
2023-02-02T17:12:35.328Z,86.13
2023-02-02T17:15:40.062Z,86.09
2023-02-02T17:18:26.641Z,85.97
2023-02-02T17:21:24.976Z,86.25
2023-02-02T17:24:12.058Z,86.19
2023-02-02T17:26:58.871Z,86.11
2023-02-02T17:29:46.445Z,86.23
2023-02-02T17:32:32.919Z,86.27
2023-02-02T17:37:41.454Z,86.30
2023-02-02T17:40:28.380Z,86.36
2023-02-02T17:43:16.231Z,86.41
2023-02-02T17:46:46.419Z,86.57
2023-02-02T17:49:33.042Z,86.86
2023-02-02T17:54:14.339Z,87.11
2023-02-02T18:08:13.830Z,87.01
2023-02-02T18:11:12.362Z,87.20
2023-02-02T18:13:59.413Z,87.08
2023-02-02T18:16:46.121Z,86.94
2023-02-02T18:19:32.892Z,86.66
2023-02-02T18:22:19.912Z,86.53
2023-02-02T18:25:07.273Z,86.30
2023-02-02T18:27:57.107Z,86.37
2023-02-02T18:30:44.700Z,86.33
2023-02-02T18:33:31.989Z,86.23
2023-02-02T18:36:21.839Z,86.09
2023-02-02T18:39:10.021Z,86.21
2023-02-02T18:41:57.170Z,86.32
2023-02-02T18:44:44.827Z,86.41
2023-02-02T18:47:31.331Z,86.45
2023-02-02T18:50:17.871Z,86.47
2023-02-02T18:53:04.256Z,86.40
2023-02-02T18:55:50.891Z,86.51
2023-02-02T18:58:49.185Z,86.48
2023-02-02T19:01:40.002Z,86.49
2023-02-02T19:04:29.788Z,86.46
2023-02-02T19:07:38.707Z,86.47
2023-02-02T19:10:29.436Z,86.42
2023-02-02T19:13:20.455Z,86.57
2023-02-02T19:16:17.912Z,86.52
2023-02-02T19:19:12.899Z,86.63
2023-02-02T19:22:07.757Z,86.52
2023-02-02T19:25:13.596Z,86.50
2023-02-02T19:28:25.632Z,86.33
2023-02-02T19:31:15.039Z,86.28
2023-02-02T19:34:03.948Z,85.78
2023-02-02T19:36:51.324Z,85.46
2023-02-02T19:39:37.892Z,85.29
2023-02-02T19:42:24.429Z,84.93
2023-02-02T19:45:33.525Z,85.01
2023-02-02T19:48:35.515Z,84.95
2023-02-02T19:51:44.435Z,85.13
2023-02-02T19:54:45.199Z,85.23
2023-02-02T19:57:37.082Z,85.33
2023-02-02T20:00:27.297Z,85.56
2023-02-02T20:03:23.935Z,85.71
2023-02-02T20:06:23.683Z,85.88
2023-02-02T20:09:17.076Z,86.12
2023-02-02T20:12:21.328Z,86.46
2023-02-02T20:15:27.205Z,86.68
2023-02-02T20:18:24.658Z,86.77
2023-02-02T20:21:24.054Z,86.77
2023-02-02T20:24:25.358Z,86.91
2023-02-02T20:27:19.451Z,87.00
2023-02-02T20:30:20.409Z,87.10
2023-02-02T20:33:21.278Z,87.10
2023-02-02T20:36:41.299Z,87.22
2023-02-02T20:39:27.641Z,87.20
2023-02-02T20:42:15.427Z,87.14
2023-02-02T20:45:05.963Z,86.84
2023-02-02T20:47:53.331Z,86.80
2023-02-02T20:50:40.637Z,86.87
2023-02-02T20:53:27.445Z,86.91
2023-02-02T20:56:14.282Z,86.91
2023-02-02T20:59:01.318Z,86.97
2023-02-02T21:01:50.127Z,87.03
2023-02-02T21:04:36.597Z,87.13
2023-02-02T21:07:23.346Z,87.08
2023-02-02T21:10:10.519Z,87.13
2023-02-02T21:12:57.399Z,87.18
2023-02-02T21:15:43.952Z,87.27
2023-02-02T21:18:30.683Z,87.26
2023-02-02T21:21:19.040Z,87.45
2023-02-02T21:24:05.971Z,87.38
2023-02-02T21:26:53.972Z,87.48
2023-02-02T21:29:40.507Z,87.56
2023-02-02T21:32:27.267Z,87.59
2023-02-02T21:35:15.172Z,87.80
2023-02-02T21:38:13.103Z,87.79
2023-02-02T21:41:00.081Z,87.97
2023-02-02T21:43:46.554Z,87.97
2023-02-02T21:46:37.177Z,87.91
2023-02-02T21:49:37.554Z,87.71
2023-02-02T21:52:26.012Z,87.75
2023-02-02T21:55:28.947Z,87.92
2023-02-02T21:58:18.126Z,88.03
2023-02-02T22:01:17.037Z,88.06
2023-02-02T22:04:03.803Z,88.20
2023-02-02T22:06:56.575Z,88.14
2023-02-02T22:09:45.327Z,88.24
2023-02-02T22:12:32.722Z,88.46
2023-02-02T22:15:24.680Z,88.68
2023-02-02T22:18:23.169Z,88.97
2023-02-02T22:21:12.985Z,89.21
2023-02-02T22:24:00.578Z,89.16
2023-02-02T22:26:47.908Z,89.10
2023-02-02T22:29:35.269Z,89.21
2023-02-02T22:32:21.876Z,89.39
2023-02-02T22:35:08.729Z,89.61
2023-02-02T22:37:55.228Z,89.65
2023-02-02T22:40:41.877Z,89.73
2023-02-02T22:43:28.660Z,89.66
2023-02-02T22:46:14.881Z,89.62
2023-02-02T22:49:01.596Z,89.56
2023-02-02T22:51:48.303Z,89.60
2023-02-02T22:54:34.647Z,89.80
2023-02-02T22:57:21.242Z,89.78
2023-02-02T23:00:21.949Z,89.78
2023-02-02T23:03:08.817Z,89.81
2023-02-02T23:05:55.598Z,90.11
2023-02-02T23:08:42.076Z,90.05
2023-02-02T23:11:28.554Z,89.93
2023-02-02T23:14:17.061Z,90.06
2023-02-02T23:17:03.919Z,90.05
2023-02-02T23:19:50.235Z,90.17
2023-02-02T23:22:36.846Z,90.18
2023-02-02T23:25:23.736Z,90.32
2023-02-02T23:28:10.696Z,90.34
2023-02-02T23:30:59.263Z,90.34
2023-02-02T23:33:46.571Z,90.21
2023-02-02T23:36:32.804Z,89.94
2023-02-02T23:39:19.790Z,89.91
2023-02-02T23:42:06.665Z,89.77
2023-02-02T23:44:53.350Z,89.66
2023-02-02T23:47:40.152Z,89.77
2023-02-02T23:50:28.113Z,89.80
2023-02-02T23:53:16.025Z,89.83
2023-02-02T23:56:02.652Z,89.67
2023-02-02T23:58:49.798Z,89.59
